createdAt,value
2023-01-18T00:01:36.781Z,13.37
2023-01-18T00:06:28.697Z,13.57
2023-01-18T00:11:20.343Z,13.13
2023-01-18T00:16:15.246Z,11.60
2023-01-18T00:21:10.695Z,9.57
2023-01-18T00:26:08.412Z,13.17
2023-01-18T00:31:00.354Z,13.20
2023-01-18T00:35:59.422Z,12.87
2023-01-18T00:40:51.447Z,13.40
2023-01-18T00:45:43.205Z,15.13
2023-01-18T00:50:34.856Z,15.37
2023-01-18T00:55:27.014Z,13.07
2023-01-18T01:00:19.028Z,15.07
2023-01-18T01:05:37.889Z,15.20
2023-01-18T01:10:29.556Z,15.60
2023-01-18T01:15:39.754Z,17.30
2023-01-18T01:20:49.989Z,15.23
2023-01-18T01:26:01.581Z,11.27
2023-01-18T01:30:57.798Z,17.73
2023-01-18T01:35:49.905Z,13.47
2023-01-18T01:40:41.543Z,14.10
2023-01-18T01:45:33.861Z,13.23
2023-01-18T01:50:35.857Z,15.93
2023-01-18T01:55:34.932Z,12.13
2023-01-18T02:00:26.954Z,13.10
2023-01-18T02:05:19.040Z,10.93
2023-01-18T02:10:11.252Z,16.07
2023-01-18T02:15:03.443Z,15.30
2023-01-18T02:20:19.574Z,14.27
2023-01-18T02:25:33.253Z,14.00
2023-01-18T02:31:02.148Z,13.30
2023-01-18T02:35:56.584Z,16.00
2023-01-18T02:40:57.353Z,13.07
2023-01-18T02:46:08.671Z,14.93
2023-01-18T02:51:00.348Z,11.97
2023-01-18T02:56:13.051Z,13.07
2023-01-18T03:01:07.485Z,12.63
2023-01-18T03:06:02.236Z,12.90
2023-01-18T03:11:04.781Z,13.33
2023-01-18T03:16:22.700Z,13.00
2023-01-18T03:21:14.431Z,11.40
2023-01-18T03:26:12.055Z,11.33
2023-01-18T03:31:28.737Z,13.77
2023-01-18T03:36:25.397Z,13.20
2023-01-18T03:41:18.588Z,10.70
2023-01-18T03:46:11.876Z,18.27
2023-01-18T03:51:21.093Z,13.83
2023-01-18T03:56:39.109Z,12.60
2023-01-18T04:01:31.502Z,16.10
2023-01-18T04:06:25.705Z,12.97
2023-01-18T04:11:18.027Z,12.00
2023-01-18T04:16:09.941Z,11.57
2023-01-18T04:21:01.594Z,11.93
2023-01-18T04:25:53.213Z,10.63
2023-01-18T04:30:45.607Z,12.23
2023-01-18T04:35:37.472Z,13.07
2023-01-18T04:40:29.010Z,14.67
2023-01-18T04:45:20.934Z,15.47
2023-01-18T04:50:12.665Z,14.53
2023-01-18T04:55:04.606Z,11.23
2023-01-18T04:59:56.263Z,12.07
2023-01-18T05:04:48.082Z,10.73
2023-01-18T05:09:39.700Z,12.67
2023-01-18T05:14:31.340Z,12.87
2023-01-18T05:19:22.933Z,11.23
2023-01-18T05:24:14.580Z,17.13
2023-01-18T05:29:06.475Z,10.13
2023-01-18T05:33:58.031Z,11.07
2023-01-18T05:38:49.688Z,14.13
2023-01-18T05:43:41.430Z,10.50
2023-01-18T05:48:33.388Z,15.43
2023-01-18T05:53:25.748Z,11.20
2023-01-18T05:58:17.369Z,10.37
2023-01-18T06:03:10.765Z,12.20
2023-01-18T06:08:02.678Z,11.33
2023-01-18T06:12:54.329Z,11.60
2023-01-18T06:17:49.358Z,14.10
2023-01-18T06:22:41.240Z,12.23
2023-01-18T06:27:32.832Z,12.60
2023-01-18T06:32:24.473Z,13.63
2023-01-18T06:37:16.112Z,13.67
2023-01-18T06:42:07.684Z,12.67
2023-01-18T06:46:59.308Z,15.33
2023-01-18T06:51:50.894Z,14.10
2023-01-18T06:56:42.840Z,12.50
2023-01-18T07:01:34.473Z,17.53
2023-01-18T07:06:26.262Z,15.57
2023-01-18T07:11:18.808Z,14.70
2023-01-18T07:16:17.953Z,16.50
2023-01-18T07:21:10.707Z,13.67
2023-01-18T07:26:04.206Z,19.00
2023-01-18T07:30:55.793Z,20.57
2023-01-18T07:35:47.360Z,17.57
2023-01-18T07:40:39.042Z,16.70
2023-01-18T07:45:30.663Z,21.47
2023-01-18T07:50:22.548Z,15.73
2023-01-18T07:55:14.240Z,16.77
2023-01-18T08:00:11.119Z,15.10
2023-01-18T08:05:05.892Z,18.80
2023-01-18T08:09:58.044Z,19.00
2023-01-18T08:14:49.663Z,15.57
2023-01-18T08:19:41.363Z,18.67
2023-01-18T08:24:32.943Z,18.77
2023-01-18T08:29:24.656Z,16.07
2023-01-18T08:34:16.286Z,19.10
2023-01-18T08:39:07.955Z,14.43
2023-01-18T08:43:59.882Z,15.40
2023-01-18T08:48:54.871Z,15.73
2023-01-18T08:53:47.469Z,17.57
2023-01-18T08:58:39.044Z,19.00
2023-01-18T09:03:30.611Z,17.67
2023-01-18T09:08:22.804Z,18.13
2023-01-18T09:13:14.602Z,18.87
2023-01-18T09:18:08.057Z,18.67
2023-01-18T09:23:04.787Z,15.20
2023-01-18T09:27:56.412Z,20.80
2023-01-18T09:32:48.004Z,20.50
2023-01-18T09:37:39.583Z,16.70
2023-01-18T09:42:37.849Z,19.83
2023-01-18T09:47:34.415Z,15.73
2023-01-18T09:52:32.358Z,20.30
2023-01-18T09:57:30.161Z,17.73
2023-01-18T10:02:24.372Z,17.93
2023-01-18T10:07:17.974Z,21.57
2023-01-18T10:12:24.739Z,22.23
2023-01-18T10:17:28.923Z,18.67
2023-01-18T10:22:34.239Z,17.17
2023-01-18T10:27:37.591Z,17.37
2023-01-18T10:32:31.462Z,19.03
2023-01-18T10:37:45.442Z,20.07
2023-01-18T10:42:48.801Z,17.37
2023-01-18T10:47:40.410Z,22.27
2023-01-18T10:52:32.603Z,22.23
2023-01-18T10:57:32.150Z,16.67
2023-01-18T11:02:29.526Z,18.50
2023-01-18T11:07:25.654Z,18.97
2023-01-18T11:12:38.510Z,18.83
2023-01-18T11:17:30.964Z,18.53
2023-01-18T11:22:24.390Z,15.73
2023-01-18T11:27:23.102Z,16.63
2023-01-18T11:32:30.336Z,13.83
2023-01-18T11:37:27.875Z,12.23
2023-01-18T11:42:36.623Z,13.00
2023-01-18T11:47:37.675Z,14.57
2023-01-18T11:52:51.742Z,11.47
2023-01-18T11:57:44.928Z,10.97
2023-01-18T12:02:45.494Z,12.77
2023-01-18T12:08:05.533Z,11.57
2023-01-18T12:13:31.342Z,10.90
2023-01-18T12:18:28.869Z,9.40
2023-01-18T12:23:43.610Z,11.47
2023-01-18T12:29:12.899Z,10.43
2023-01-18T12:34:18.680Z,9.37
2023-01-18T12:39:47.596Z,9.57
2023-01-18T12:45:00.829Z,9.30
2023-01-18T12:49:59.326Z,8.93
2023-01-18T12:54:56.011Z,8.03
2023-01-18T13:00:09.135Z,7.27
2023-01-18T13:05:43.148Z,13.03
2023-01-18T13:10:36.479Z,9.23
2023-01-18T13:15:52.541Z,9.93
2023-01-18T13:21:03.059Z,8.73
2023-01-18T13:26:14.850Z,7.80
2023-01-18T13:31:06.767Z,7.27
2023-01-18T13:36:09.961Z,7.93
2023-01-18T13:41:04.785Z,10.07
2023-01-18T13:46:08.603Z,7.57
2023-01-18T13:51:00.873Z,10.60
2023-01-18T13:56:04.895Z,6.87
2023-01-18T14:01:05.488Z,7.47
2023-01-18T14:05:58.472Z,5.63
2023-01-18T14:10:53.656Z,6.03
2023-01-18T14:15:52.003Z,7.73
2023-01-18T14:21:25.807Z,6.90
2023-01-18T14:26:19.348Z,6.03
2023-01-18T14:31:18.517Z,8.20
2023-01-18T14:36:24.469Z,5.33
2023-01-18T14:41:17.916Z,4.70
2023-01-18T14:46:16.535Z,6.33
2023-01-18T14:51:08.172Z,5.60
2023-01-18T14:56:18.329Z,6.70
2023-01-18T15:01:31.639Z,7.07
2023-01-18T15:06:30.339Z,6.27
2023-01-18T15:11:23.613Z,6.57
2023-01-18T15:16:24.261Z,6.27
2023-01-18T15:21:21.519Z,6.60
2023-01-18T15:26:13.640Z,7.17
2023-01-18T15:31:15.353Z,7.23
2023-01-18T15:36:09.892Z,6.80
2023-01-18T15:41:10.981Z,7.10
2023-01-18T15:46:08.865Z,6.70
2023-01-18T15:51:07.374Z,7.13
2023-01-18T15:56:05.066Z,6.53
2023-01-18T16:01:00.351Z,8.63
2023-01-18T16:05:58.090Z,6.80
2023-01-18T16:10:55.626Z,7.20
2023-01-18T16:16:14.041Z,8.10
2023-01-18T16:21:11.967Z,7.53
2023-01-18T16:26:04.834Z,5.40
2023-01-18T16:30:56.580Z,5.93
2023-01-18T16:35:48.892Z,5.93
2023-01-18T16:40:44.043Z,7.30
2023-01-18T16:45:38.999Z,6.00
2023-01-18T16:50:31.291Z,6.53
2023-01-18T16:55:23.098Z,8.23
2023-01-18T17:00:19.280Z,7.40
2023-01-18T17:05:12.036Z,8.07
2023-01-18T17:10:18.780Z,5.13
2023-01-18T17:15:10.858Z,5.17
2023-01-18T17:20:16.362Z,5.43
2023-01-18T17:25:08.378Z,4.80
2023-01-18T17:30:00.646Z,4.93
2023-01-18T17:34:52.305Z,7.30
2023-01-18T17:40:02.243Z,6.10
2023-01-18T17:45:02.562Z,6.33
2023-01-18T17:49:54.420Z,5.13
2023-01-18T17:54:46.080Z,5.03
2023-01-18T17:59:37.605Z,4.37
2023-01-18T18:04:30.624Z,5.43
2023-01-18T18:09:22.239Z,6.23
2023-01-18T18:14:13.800Z,6.80
2023-01-18T18:19:05.938Z,7.53
2023-01-18T18:23:58.566Z,6.00
2023-01-18T18:28:50.245Z,7.37
2023-01-18T18:33:42.502Z,9.73
2023-01-18T18:38:34.332Z,9.63
2023-01-18T18:43:26.193Z,11.10
2023-01-18T18:48:17.995Z,9.20
2023-01-18T18:53:09.744Z,10.67
2023-01-18T18:58:01.643Z,10.53
2023-01-18T19:03:02.382Z,9.27
2023-01-18T19:07:58.249Z,9.87
2023-01-18T19:12:51.967Z,8.57
2023-01-18T19:17:43.728Z,7.40
2023-01-18T19:22:38.127Z,7.43
2023-01-18T19:27:30.145Z,6.90
2023-01-18T19:32:22.003Z,6.63
2023-01-18T19:37:13.866Z,9.03
2023-01-18T19:42:06.864Z,6.63
2023-01-18T19:46:58.524Z,6.57
2023-01-18T19:51:50.307Z,8.27
2023-01-18T19:56:41.937Z,7.53
2023-01-18T20:01:36.791Z,7.50
2023-01-18T20:06:28.876Z,7.20
2023-01-18T20:11:20.584Z,9.10
2023-01-18T20:16:12.317Z,9.03
2023-01-18T20:21:14.193Z,5.70
2023-01-18T20:26:06.420Z,6.20
2023-01-18T20:30:59.691Z,5.57
2023-01-18T20:35:52.996Z,7.27
2023-01-18T20:40:44.682Z,8.80
2023-01-18T20:45:36.421Z,7.60
2023-01-18T20:50:28.303Z,7.83
2023-01-18T20:55:20.561Z,6.80
2023-01-18T21:00:13.254Z,5.30
2023-01-18T21:05:05.372Z,6.63
2023-01-18T21:09:57.050Z,6.13
2023-01-18T21:14:48.669Z,8.63
2023-01-18T21:19:47.489Z,6.30
2023-01-18T21:24:39.344Z,5.40
2023-01-18T21:29:30.923Z,6.23
2023-01-18T21:34:22.464Z,5.97
2023-01-18T21:39:18.485Z,6.07
2023-01-18T21:44:30.844Z,8.13
2023-01-18T21:50:11.443Z,5.70
2023-01-18T21:54:52.633Z,8.23
2023-01-18T21:59:45.468Z,6.20
2023-01-18T22:04:56.916Z,7.90
2023-01-18T22:10:03.129Z,7.23
2023-01-18T22:14:57.106Z,7.03
2023-01-18T22:19:48.814Z,8.87
2023-01-18T22:24:40.563Z,6.67
2023-01-18T22:29:32.784Z,6.70
2023-01-18T22:34:24.402Z,5.83
2023-01-18T22:39:16.463Z,5.63
2023-01-18T22:44:08.430Z,8.10
2023-01-18T22:49:00.125Z,5.97
2023-01-18T22:53:52.192Z,5.13
2023-01-18T22:58:45.158Z,7.57
2023-01-18T23:03:36.998Z,6.37
2023-01-18T23:08:38.392Z,6.33
2023-01-18T23:13:29.909Z,7.87
2023-01-18T23:18:21.430Z,5.87
2023-01-18T23:23:12.984Z,5.47
2023-01-18T23:28:05.066Z,6.93
2023-01-18T23:32:57.080Z,5.83
2023-01-18T23:37:48.662Z,7.87
2023-01-18T23:42:58.824Z,7.50
2023-01-18T23:48:09.001Z,6.70
2023-01-18T23:53:19.809Z,7.13
2023-01-18T23:58:11.689Z,7.17
